Centerville, Louisiana
Current Conditions -  °F | °C
As of 3:15 AM on Monday 29 Dec 2014 (Local Time) from KPTN Reporting Station
Overcast Overcast  
Wind Chill: 54°   Ceiling: 200
Heat Index: 54°   Visibility: 2.5mi
Dew Point: 52°   Wind: 0mph
Humidity: 94%   Direction: NA
Pressure: 30.09"   Gusts: NA
Location:  29.76°N, 91.43°W
Report Text: KPTN 290915Z AUTO 00000KT 2 1/2SM OVC002 12/11 A3009 RMK AO1
Loading
Personal Weather Stations






























Interactive Weather Map New forecast layout! Learn more

10-Day Weather Forecast

Advertisements
Track Severe Weather on mobile